createdAt,value
2022-12-11T00:00:15.296Z,126.90
2022-12-11T00:01:15.304Z,139.50
2022-12-11T00:02:15.370Z,135.30
2022-12-11T00:03:16.258Z,138.00
2022-12-11T00:04:15.279Z,136.50
2022-12-11T00:05:15.234Z,140.40
2022-12-11T00:06:15.268Z,138.70
2022-12-11T00:07:15.201Z,125.50
2022-12-11T00:08:15.241Z,138.60
2022-12-11T00:09:15.178Z,133.20
2022-12-11T00:10:15.206Z,125.60
2022-12-11T00:11:15.169Z,131.20
2022-12-11T00:12:15.139Z,134.00
2022-12-11T00:13:15.132Z,128.10
2022-12-11T00:14:15.120Z,125.60
2022-12-11T00:15:15.120Z,132.00
2022-12-11T00:16:15.125Z,138.90
2022-12-11T00:17:15.081Z,125.30
2022-12-11T00:18:15.059Z,132.70
2022-12-11T00:19:15.050Z,135.70
2022-12-11T00:20:15.054Z,145.30
2022-12-11T00:21:15.019Z,134.00
2022-12-11T00:22:15.009Z,139.20
2022-12-11T00:23:14.998Z,146.00
2022-12-11T00:24:14.990Z,146.30
2022-12-11T00:25:14.989Z,136.40
2022-12-11T00:26:14.961Z,138.40
2022-12-11T00:27:14.947Z,139.80
2022-12-11T00:28:14.933Z,149.00
2022-12-11T00:29:14.917Z,148.10
2022-12-11T00:30:14.917Z,162.60
2022-12-11T00:31:14.919Z,151.30
2022-12-11T00:32:14.898Z,144.60
2022-12-11T00:33:14.873Z,150.60
2022-12-11T00:34:14.849Z,140.40
2022-12-11T00:35:14.855Z,134.50
2022-12-11T00:36:14.840Z,130.90
2022-12-11T00:37:14.898Z,140.30
2022-12-11T00:38:14.800Z,137.80
2022-12-11T00:39:14.788Z,143.40
2022-12-11T00:40:14.798Z,142.10
2022-12-11T00:41:14.790Z,124.80
2022-12-11T00:42:14.750Z,128.80
2022-12-11T00:43:14.739Z,127.70
2022-12-11T00:44:14.719Z,127.60
2022-12-11T00:45:14.734Z,131.00
2022-12-11T00:46:14.730Z,140.50
2022-12-11T00:47:14.710Z,145.20
2022-12-11T00:48:14.665Z,150.80
2022-12-11T00:49:14.663Z,135.20
2022-12-11T00:50:14.668Z,134.30
2022-12-11T00:51:14.644Z,137.60
2022-12-11T00:52:14.611Z,134.00
2022-12-11T00:53:14.607Z,124.80
2022-12-11T00:54:14.590Z,122.80
2022-12-11T00:55:14.609Z,125.10
2022-12-11T00:56:14.560Z,123.40
2022-12-11T00:57:14.553Z,121.80
2022-12-11T00:58:14.537Z,127.40
2022-12-11T00:59:14.530Z,130.80
2022-12-11T01:00:14.516Z,121.10
2022-12-11T01:01:14.537Z,114.70
2022-12-11T01:02:14.484Z,119.40
2022-12-11T01:03:14.559Z,116.90
2022-12-11T01:04:14.461Z,101.40
2022-12-11T01:05:14.461Z,106.10
2022-12-11T01:06:14.448Z,104.70
2022-12-11T01:07:14.421Z,114.70
2022-12-11T01:08:14.426Z,104.90
2022-12-11T01:09:14.393Z,111.30
2022-12-11T01:10:14.458Z,107.70
2022-12-11T01:11:14.406Z,111.10
2022-12-11T01:12:14.361Z,111.80
2022-12-11T01:13:14.345Z,110.40
2022-12-11T01:14:14.347Z,106.10
2022-12-11T01:15:14.323Z,106.70
2022-12-11T01:16:14.353Z,112.30
2022-12-11T01:17:14.310Z,109.10
2022-12-11T01:18:14.277Z,100.40
2022-12-11T01:19:14.272Z,107.30
2022-12-11T01:20:14.251Z,102.40
2022-12-11T01:21:14.249Z,101.40
2022-12-11T01:22:14.252Z,100.80
2022-12-11T01:23:14.213Z,100.30
2022-12-11T01:24:14.200Z,104.20
2022-12-11T01:25:14.191Z,101.00
2022-12-11T01:26:14.199Z,103.60
2022-12-11T01:27:14.160Z,96.10
2022-12-11T01:28:14.149Z,103.70
2022-12-11T01:29:14.139Z,102.10
2022-12-11T01:30:14.122Z,100.70
2022-12-11T01:31:14.173Z,96.10
2022-12-11T01:32:14.090Z,107.70
2022-12-11T01:33:14.092Z,112.40
2022-12-11T01:34:14.068Z,109.50
2022-12-11T01:35:14.061Z,105.80
2022-12-11T01:36:14.071Z,118.60
2022-12-11T01:37:14.029Z,109.30
2022-12-11T01:38:14.033Z,118.60
2022-12-11T01:39:14.012Z,116.90
2022-12-11T01:40:13.984Z,115.40
2022-12-11T01:41:14.017Z,119.20
2022-12-11T01:42:14.014Z,122.20
2022-12-11T01:43:13.953Z,132.10
2022-12-11T01:44:13.933Z,119.10
2022-12-11T01:45:13.932Z,117.70
2022-12-11T01:46:13.988Z,121.40
2022-12-11T01:47:13.903Z,120.20
2022-12-11T01:48:13.884Z,111.30
2022-12-11T01:49:13.862Z,106.50
2022-12-11T01:50:13.853Z,112.00
2022-12-11T01:51:13.881Z,104.00
2022-12-11T01:52:13.832Z,109.00
2022-12-11T01:53:13.825Z,103.70
2022-12-11T01:54:13.804Z,105.30
2022-12-11T01:55:13.804Z,107.00
2022-12-11T01:56:13.792Z,102.10
2022-12-11T01:57:13.773Z,104.10
2022-12-11T01:58:13.752Z,99.80
2022-12-11T01:59:13.756Z,98.60
2022-12-11T02:00:13.724Z,104.50
2022-12-11T02:01:13.775Z,97.20
2022-12-11T02:02:13.738Z,101.90
2022-12-11T02:03:13.692Z,103.80
2022-12-11T02:04:13.675Z,100.60
2022-12-11T02:05:13.770Z,101.70
2022-12-11T02:06:13.672Z,96.60
2022-12-11T02:07:13.642Z,101.30
2022-12-11T02:08:13.670Z,103.30
2022-12-11T02:09:13.622Z,98.10
2022-12-11T02:10:13.605Z,97.50
2022-12-11T02:11:13.615Z,101.50
2022-12-11T02:12:13.576Z,91.50
2022-12-11T02:13:13.564Z,99.20
2022-12-11T02:14:13.561Z,100.70
2022-12-11T02:15:13.633Z,101.00
2022-12-11T02:16:13.586Z,101.50
2022-12-11T02:17:13.515Z,105.30
2022-12-11T02:18:13.496Z,94.40
2022-12-11T02:19:13.494Z,102.00
2022-12-11T02:20:13.481Z,95.40
2022-12-11T02:21:13.485Z,99.00
2022-12-11T02:22:13.466Z,105.30
2022-12-11T02:23:13.436Z,101.00
2022-12-11T02:24:13.416Z,107.20
2022-12-11T02:25:13.537Z,102.00
2022-12-11T02:26:13.383Z,102.20
2022-12-11T02:27:13.408Z,100.20
2022-12-11T02:28:13.398Z,103.00
2022-12-11T02:29:13.355Z,110.40
2022-12-11T02:30:13.345Z,108.40
2022-12-11T02:31:13.346Z,111.70
2022-12-11T02:32:13.339Z,102.00
2022-12-11T02:33:13.303Z,118.50
2022-12-11T02:34:13.286Z,111.00
2022-12-11T02:35:13.598Z,111.30
2022-12-11T02:36:13.254Z,114.10
2022-12-11T02:37:13.271Z,115.00
2022-12-11T02:38:13.233Z,117.00
2022-12-11T02:39:13.223Z,118.60
2022-12-11T02:40:13.222Z,120.60
2022-12-11T02:41:13.210Z,116.50
2022-12-11T02:42:13.205Z,120.70
2022-12-11T02:43:13.174Z,126.30
2022-12-11T02:44:13.152Z,114.80
2022-12-11T02:45:13.437Z,118.90
2022-12-11T02:46:13.149Z,124.60
2022-12-11T02:47:13.145Z,125.50
2022-12-11T02:48:13.103Z,121.60
2022-12-11T02:49:13.097Z,127.10
2022-12-11T02:50:13.082Z,124.70
2022-12-11T02:51:13.073Z,125.00
2022-12-11T02:52:13.072Z,132.20
2022-12-11T02:53:13.044Z,129.20
2022-12-11T02:54:13.024Z,133.60
2022-12-11T02:55:13.274Z,126.30
2022-12-11T02:56:13.007Z,135.20
2022-12-11T02:57:13.005Z,142.10
2022-12-11T02:58:12.993Z,140.20
2022-12-11T02:59:12.964Z,142.50
2022-12-11T03:00:12.946Z,139.40
2022-12-11T03:01:13.048Z,136.20
2022-12-11T03:02:12.968Z,147.70
2022-12-11T03:03:12.914Z,141.60
2022-12-11T03:04:12.895Z,137.90
2022-12-11T03:05:13.096Z,140.90
2022-12-11T03:06:12.868Z,152.40
2022-12-11T03:07:12.886Z,147.30
2022-12-11T03:08:12.891Z,158.60
2022-12-11T03:09:12.834Z,162.20
2022-12-11T03:10:12.824Z,172.90
2022-12-11T03:11:12.813Z,164.00
2022-12-11T03:12:12.816Z,164.80
2022-12-11T03:13:12.783Z,171.10
2022-12-11T03:14:12.765Z,167.40
2022-12-11T03:15:13.051Z,178.10
2022-12-11T03:16:12.810Z,165.50
2022-12-11T03:17:12.755Z,174.50
2022-12-11T03:18:12.715Z,163.40
2022-12-11T03:19:12.706Z,167.20
2022-12-11T03:20:12.688Z,159.70
2022-12-11T03:21:12.687Z,169.00
2022-12-11T03:22:12.665Z,162.60
2022-12-11T03:23:12.672Z,160.40
2022-12-11T03:24:12.634Z,155.60
2022-12-11T03:25:12.862Z,152.20
2022-12-11T03:26:12.635Z,148.00
2022-12-11T03:27:12.597Z,158.90
2022-12-11T03:28:12.599Z,146.80
2022-12-11T03:29:12.577Z,137.10
2022-12-11T03:30:12.577Z,133.40
2022-12-11T03:31:12.586Z,133.60
2022-12-11T03:32:12.534Z,133.60
2022-12-11T03:33:12.528Z,138.00
2022-12-11T03:34:12.518Z,125.10
2022-12-11T03:35:12.969Z,123.20
2022-12-11T03:36:12.485Z,123.40
2022-12-11T03:37:12.478Z,119.20
2022-12-11T03:38:12.454Z,112.50
2022-12-11T03:39:12.447Z,116.90
2022-12-11T03:40:12.445Z,117.80
2022-12-11T03:41:12.421Z,122.30
2022-12-11T03:42:12.416Z,114.50
2022-12-11T03:43:12.398Z,116.80
2022-12-11T03:44:12.375Z,122.00
2022-12-11T03:45:12.537Z,115.60
2022-12-11T03:46:12.380Z,123.90
2022-12-11T03:47:12.334Z,115.70
2022-12-11T03:48:12.317Z,119.60
2022-12-11T03:49:12.316Z,119.80
2022-12-11T03:50:12.305Z,119.50
2022-12-11T03:51:12.307Z,111.10
2022-12-11T03:52:12.265Z,123.80
2022-12-11T03:53:12.263Z,112.60
2022-12-11T03:54:12.246Z,106.40
2022-12-11T03:55:12.683Z,112.00
2022-12-11T03:56:12.219Z,103.90
2022-12-11T03:57:12.219Z,104.70
2022-12-11T03:58:12.196Z,115.30
2022-12-11T03:59:12.187Z,117.00
2022-12-11T04:00:12.189Z,110.60
2022-12-11T04:01:12.167Z,102.50
2022-12-11T04:02:12.197Z,103.60
2022-12-11T04:03:13.939Z,103.20
2022-12-11T04:04:12.281Z,101.10
2022-12-11T04:05:12.404Z,104.70
2022-12-11T04:06:12.151Z,97.90
2022-12-11T04:07:12.086Z,106.10
2022-12-11T04:08:12.147Z,102.10
2022-12-11T04:09:12.084Z,102.40
2022-12-11T04:10:12.036Z,103.60
2022-12-11T04:11:12.065Z,106.10
2022-12-11T04:12:12.018Z,106.60
2022-12-11T04:13:12.020Z,110.10
2022-12-11T04:14:11.996Z,109.70
2022-12-11T04:15:12.228Z,105.50
2022-12-11T04:16:12.020Z,105.00
2022-12-11T04:17:11.955Z,107.20
2022-12-11T04:18:11.934Z,109.30
2022-12-11T04:19:11.926Z,108.60
2022-12-11T04:20:11.927Z,109.90
2022-12-11T04:21:11.908Z,104.10
2022-12-11T04:22:11.885Z,104.40
2022-12-11T04:23:11.877Z,100.90
2022-12-11T04:24:11.866Z,95.70
2022-12-11T04:25:12.176Z,93.20
2022-12-11T04:26:11.827Z,99.80
2022-12-11T04:27:11.827Z,94.30
2022-12-11T04:28:11.811Z,94.90
2022-12-11T04:29:11.798Z,91.60
2022-12-11T04:30:11.806Z,98.60
2022-12-11T04:31:11.794Z,95.20
2022-12-11T04:32:11.762Z,106.60
2022-12-11T04:33:11.739Z,102.90
2022-12-11T04:34:11.741Z,94.70
2022-12-11T04:35:12.026Z,97.60
2022-12-11T04:36:11.709Z,95.40
2022-12-11T04:37:11.688Z,96.50
2022-12-11T04:38:11.689Z,97.20
2022-12-11T04:39:11.683Z,98.80
2022-12-11T04:40:11.675Z,95.30
2022-12-11T04:41:11.645Z,85.70
2022-12-11T04:42:11.649Z,87.20
2022-12-11T04:43:11.613Z,94.20
2022-12-11T04:44:11.606Z,86.30
2022-12-11T04:45:11.771Z,85.60
2022-12-11T04:46:11.620Z,86.60
2022-12-11T04:47:11.558Z,83.40
2022-12-11T04:48:11.548Z,87.50
2022-12-11T04:49:11.536Z,83.10
2022-12-11T04:50:11.548Z,89.40
2022-12-11T04:51:11.505Z,88.50
2022-12-11T04:52:11.497Z,86.20
2022-12-11T04:53:11.503Z,84.90
2022-12-11T04:54:11.469Z,87.30
2022-12-11T04:55:11.680Z,86.50
2022-12-11T04:56:11.480Z,83.20
2022-12-11T04:57:11.427Z,84.80
2022-12-11T04:58:11.419Z,81.70
2022-12-11T04:59:11.397Z,86.20
2022-12-11T05:00:11.412Z,82.60
2022-12-11T05:01:11.415Z,85.40
2022-12-11T05:02:11.367Z,85.70
2022-12-11T05:03:11.394Z,84.40
2022-12-11T05:04:11.337Z,86.10
2022-12-11T05:05:11.541Z,86.50
2022-12-11T05:06:11.323Z,82.90
2022-12-11T05:07:11.297Z,83.90
2022-12-11T05:08:11.356Z,87.50
2022-12-11T05:09:11.268Z,81.00
2022-12-11T05:10:11.276Z,80.40
2022-12-11T05:11:11.253Z,85.90
2022-12-11T05:12:11.238Z,89.70
2022-12-11T05:13:11.222Z,83.20
2022-12-11T05:14:11.208Z,89.80
2022-12-11T05:15:11.554Z,83.10
2022-12-11T05:16:11.239Z,82.10
2022-12-11T05:17:11.168Z,86.80
2022-12-11T05:18:11.156Z,88.40
2022-12-11T05:19:11.157Z,98.00
2022-12-11T05:20:11.146Z,95.10
2022-12-11T05:21:11.126Z,94.10
2022-12-11T05:22:11.106Z,95.40
2022-12-11T05:23:11.089Z,86.70
2022-12-11T05:24:11.098Z,91.30
2022-12-11T05:25:11.356Z,92.20
2022-12-11T05:26:11.058Z,81.40
2022-12-11T05:27:11.038Z,87.20
2022-12-11T05:28:11.028Z,86.70
2022-12-11T05:29:11.043Z,81.90
2022-12-11T05:30:11.005Z,83.30
2022-12-11T05:31:11.073Z,88.70
2022-12-11T05:32:10.982Z,85.30
2022-12-11T05:33:10.959Z,89.50
2022-12-11T05:34:10.950Z,87.90
2022-12-11T05:35:11.118Z,82.60
2022-12-11T05:36:10.928Z,81.80
2022-12-11T05:37:10.909Z,87.00
2022-12-11T05:38:10.901Z,87.50
2022-12-11T05:39:10.884Z,89.40
2022-12-11T05:40:10.896Z,82.40
2022-12-11T05:41:10.859Z,85.40
2022-12-11T05:42:10.840Z,83.00
2022-12-11T05:43:10.833Z,83.50
2022-12-11T05:44:10.851Z,85.40
2022-12-11T05:45:10.992Z,84.90
2022-12-11T05:46:10.830Z,84.10
2022-12-11T05:47:10.782Z,81.40
2022-12-11T05:48:10.770Z,79.10
2022-12-11T05:49:10.769Z,80.20
2022-12-11T05:50:10.740Z,86.20
2022-12-11T05:51:10.727Z,82.70
2022-12-11T05:52:10.718Z,83.00
2022-12-11T05:53:10.698Z,81.10
2022-12-11T05:54:10.709Z,76.70
2022-12-11T05:55:11.005Z,83.10
2022-12-11T05:56:10.667Z,76.20
2022-12-11T05:57:10.649Z,78.00
2022-12-11T05:58:10.640Z,84.70
2022-12-11T05:59:10.637Z,78.00
2022-12-11T06:00:10.617Z,80.80
2022-12-11T06:01:10.601Z,77.40
2022-12-11T06:02:10.674Z,81.40
2022-12-11T06:03:10.660Z,81.60
2022-12-11T06:04:10.578Z,79.80
2022-12-11T06:05:10.813Z,84.00
2022-12-11T06:06:10.538Z,81.90
2022-12-11T06:07:10.526Z,82.60
2022-12-11T06:08:10.599Z,88.80
2022-12-11T06:09:10.510Z,82.10
2022-12-11T06:10:10.479Z,81.10
2022-12-11T06:11:10.459Z,75.60
2022-12-11T06:12:10.462Z,81.00
2022-12-11T06:13:10.437Z,84.20
2022-12-11T06:14:10.450Z,82.60
2022-12-11T06:15:10.820Z,83.80
2022-12-11T06:16:10.433Z,75.80
2022-12-11T06:17:10.389Z,83.50
2022-12-11T06:18:10.385Z,82.60
2022-12-11T06:19:10.383Z,80.40
2022-12-11T06:20:10.354Z,80.40
2022-12-11T06:21:10.338Z,81.20
2022-12-11T06:22:10.332Z,73.40
2022-12-11T06:23:10.317Z,83.80
2022-12-11T06:24:10.324Z,76.60
2022-12-11T06:25:10.511Z,82.20
2022-12-11T06:26:10.278Z,77.60
2022-12-11T06:27:10.272Z,73.20
2022-12-11T06:28:10.251Z,76.50
2022-12-11T06:29:12.947Z,79.70
2022-12-11T06:30:10.219Z,83.00
2022-12-11T06:31:10.273Z,80.50
2022-12-11T06:32:10.201Z,77.80
2022-12-11T06:33:10.179Z,77.40
2022-12-11T06:34:10.192Z,81.00
2022-12-11T06:35:10.379Z,76.70
2022-12-11T06:36:10.148Z,76.00
2022-12-11T06:37:10.129Z,77.70
2022-12-11T06:38:10.120Z,77.80
2022-12-11T06:39:10.111Z,78.40
2022-12-11T06:40:10.102Z,75.00
2022-12-11T06:41:10.090Z,76.70
2022-12-11T06:42:10.069Z,75.60
2022-12-11T06:43:10.061Z,78.40
2022-12-11T06:44:10.061Z,80.50
2022-12-11T06:45:10.392Z,76.70
2022-12-11T06:46:10.089Z,73.70
2022-12-11T06:47:10.003Z,81.60
2022-12-11T06:48:09.993Z,76.50
2022-12-11T06:49:09.992Z,73.30
2022-12-11T06:50:09.981Z,76.30
2022-12-11T06:51:09.959Z,75.10
2022-12-11T06:52:12.520Z,80.20
2022-12-11T06:53:10.921Z,78.60
2022-12-11T06:54:09.943Z,85.70
2022-12-11T06:55:10.282Z,79.50
2022-12-11T06:56:09.951Z,82.90
2022-12-11T06:57:09.927Z,83.90
2022-12-11T06:58:09.853Z,79.00
2022-12-11T06:59:09.861Z,75.30
2022-12-11T07:00:09.854Z,79.20
2022-12-11T07:01:09.866Z,80.50
2022-12-11T07:02:09.862Z,80.70
2022-12-11T07:03:09.791Z,81.30
2022-12-11T07:04:09.800Z,87.90
2022-12-11T07:05:10.023Z,81.70
2022-12-11T07:06:09.756Z,77.10
2022-12-11T07:07:09.744Z,75.60
2022-12-11T07:08:09.812Z,85.20
2022-12-11T07:09:09.733Z,87.40
2022-12-11T07:10:09.712Z,74.20
2022-12-11T07:11:09.683Z,79.10
2022-12-11T07:12:09.680Z,80.80
2022-12-11T07:13:09.672Z,81.70
2022-12-11T07:14:09.693Z,83.40
2022-12-11T07:15:09.972Z,80.20
2022-12-11T07:16:09.674Z,76.40
2022-12-11T07:17:09.613Z,78.00
2022-12-11T07:18:09.612Z,80.30
2022-12-11T07:19:09.581Z,83.50
2022-12-11T07:20:09.595Z,77.40
2022-12-11T07:21:09.564Z,78.10
2022-12-11T07:22:09.552Z,76.70
2022-12-11T07:23:09.533Z,74.10
2022-12-11T07:24:09.522Z,70.50
2022-12-11T07:25:09.844Z,71.90
2022-12-11T07:26:09.593Z,78.70
2022-12-11T07:27:09.473Z,74.80
2022-12-11T07:28:13.663Z,74.50
2022-12-11T07:29:10.452Z,75.70
2022-12-11T07:30:09.489Z,74.90
2022-12-11T07:31:09.424Z,74.80
2022-12-11T07:32:09.494Z,74.30
2022-12-11T07:33:09.402Z,69.50
2022-12-11T07:34:09.394Z,76.60
2022-12-11T07:35:09.866Z,72.70
2022-12-11T07:36:09.371Z,73.50
2022-12-11T07:37:09.349Z,74.10
2022-12-11T07:38:09.348Z,75.50
2022-12-11T07:39:09.322Z,68.90
2022-12-11T07:40:09.332Z,69.90
2022-12-11T07:41:09.307Z,73.30
2022-12-11T07:42:09.285Z,67.30
2022-12-11T07:43:09.273Z,70.20
2022-12-11T07:44:09.279Z,74.40
2022-12-11T07:45:09.466Z,70.40
2022-12-11T07:46:09.285Z,74.10
2022-12-11T07:47:09.213Z,68.20
2022-12-11T07:48:09.213Z,60.40
2022-12-11T07:49:09.212Z,70.00
2022-12-11T07:50:09.183Z,67.60
2022-12-11T07:51:09.169Z,60.10
2022-12-11T07:52:09.163Z,66.30
2022-12-11T07:53:09.146Z,66.90
2022-12-11T07:54:09.149Z,65.80
2022-12-11T07:55:09.498Z,61.60
2022-12-11T07:56:09.109Z,63.40
2022-12-11T07:57:13.971Z,60.70
2022-12-11T07:58:10.084Z,62.70
2022-12-11T07:59:09.082Z,66.30
2022-12-11T08:00:09.054Z,64.90
2022-12-11T08:01:09.066Z,62.50
2022-12-11T08:02:09.062Z,62.10
2022-12-11T08:03:09.023Z,66.80
2022-12-11T08:04:09.022Z,57.60
2022-12-11T08:05:09.198Z,63.40
2022-12-11T08:06:08.984Z,57.40
2022-12-11T08:07:08.962Z,61.30
2022-12-11T08:08:08.980Z,60.70
2022-12-11T08:09:08.947Z,56.20
2022-12-11T08:10:08.930Z,59.70
2022-12-11T08:11:08.902Z,58.80
2022-12-11T08:12:08.891Z,59.00
2022-12-11T08:13:08.872Z,56.80
2022-12-11T08:14:08.890Z,53.40
2022-12-11T08:15:09.156Z,53.60
2022-12-11T08:16:08.843Z,57.90
2022-12-11T08:17:08.829Z,57.50
2022-12-11T08:18:08.816Z,57.20
2022-12-11T08:19:08.816Z,55.40
2022-12-11T08:20:08.784Z,56.50
2022-12-11T08:21:08.772Z,57.30
2022-12-11T08:22:08.764Z,50.20
2022-12-11T08:23:08.751Z,52.30
2022-12-11T08:24:08.758Z,52.40
2022-12-11T08:25:08.939Z,49.30
2022-12-11T08:26:08.722Z,55.30
2022-12-11T08:27:08.695Z,50.70
2022-12-11T08:28:08.691Z,49.90
2022-12-11T08:29:08.685Z,50.80
2022-12-11T08:30:08.667Z,53.30
2022-12-11T08:31:08.680Z,53.70
2022-12-11T08:32:12.218Z,52.50
2022-12-11T08:33:08.613Z,47.30
2022-12-11T08:34:08.627Z,51.00
2022-12-11T08:35:08.796Z,49.50
2022-12-11T08:36:08.578Z,50.90
2022-12-11T08:37:08.570Z,48.90
2022-12-11T08:38:08.554Z,51.10
2022-12-11T08:39:08.555Z,47.50
2022-12-11T08:40:08.524Z,50.40
2022-12-11T08:41:08.517Z,46.90
2022-12-11T08:42:08.505Z,48.90
2022-12-11T08:43:08.486Z,47.70
2022-12-11T08:44:12.951Z,49.10
2022-12-11T08:45:09.876Z,47.90
2022-12-11T08:46:08.511Z,46.80
2022-12-11T08:47:08.443Z,48.30
2022-12-11T08:48:08.424Z,47.90
2022-12-11T08:49:08.437Z,48.00
2022-12-11T08:50:08.395Z,46.50
2022-12-11T08:51:08.385Z,50.00
2022-12-11T08:52:08.375Z,49.80
2022-12-11T08:53:08.373Z,46.80
2022-12-11T08:54:08.357Z,52.30
2022-12-11T08:55:08.657Z,48.60
2022-12-11T08:56:08.324Z,44.80
2022-12-11T08:57:08.305Z,47.00
2022-12-11T08:58:08.292Z,44.80
2022-12-11T08:59:08.302Z,43.50
2022-12-11T09:00:08.273Z,45.60
2022-12-11T09:01:08.331Z,41.50
2022-12-11T09:02:08.262Z,42.60
2022-12-11T09:03:12.645Z,42.90
2022-12-11T09:04:08.240Z,42.30
2022-12-11T09:05:08.575Z,43.30
2022-12-11T09:06:08.195Z,39.30
2022-12-11T09:07:08.175Z,38.20
2022-12-11T09:08:08.223Z,38.80
2022-12-11T09:09:08.175Z,43.10
2022-12-11T09:10:08.138Z,37.60
2022-12-11T09:11:08.125Z,37.70
2022-12-11T09:12:08.105Z,36.50
2022-12-11T09:13:08.115Z,39.60
2022-12-11T09:14:08.401Z,38.30
2022-12-11T09:15:08.130Z,37.40
2022-12-11T09:16:08.160Z,38.90
2022-12-11T09:17:08.049Z,35.20
2022-12-11T09:18:08.037Z,37.90
2022-12-11T09:19:08.035Z,39.10
2022-12-11T09:20:08.016Z,36.50
2022-12-11T09:21:07.994Z,32.50
2022-12-11T09:22:07.988Z,32.10
2022-12-11T09:23:07.965Z,33.10
2022-12-11T09:24:07.974Z,38.80
2022-12-11T09:25:08.038Z,41.80
2022-12-11T09:26:07.929Z,33.20
2022-12-11T09:27:07.928Z,33.10
2022-12-11T09:28:07.904Z,34.00
2022-12-11T09:29:07.915Z,34.80
2022-12-11T09:30:07.878Z,35.50
2022-12-11T09:31:07.930Z,32.70
2022-12-11T09:32:07.862Z,30.40
2022-12-11T09:33:07.854Z,31.30
2022-12-11T09:34:07.844Z,31.70
2022-12-11T09:35:07.855Z,33.50
2022-12-11T09:36:07.794Z,33.80
2022-12-11T09:37:07.788Z,35.90
2022-12-11T09:38:07.773Z,45.10
2022-12-11T09:39:07.776Z,41.50
2022-12-11T09:40:08.095Z,37.50
2022-12-11T09:41:07.740Z,35.50
2022-12-11T09:42:07.724Z,33.60
2022-12-11T09:43:07.713Z,31.40
2022-12-11T09:44:07.693Z,32.50
2022-12-11T09:45:07.718Z,33.00
2022-12-11T09:46:07.714Z,34.60
2022-12-11T09:47:07.657Z,31.30
2022-12-11T09:48:07.636Z,32.30
2022-12-11T09:49:07.635Z,31.90
2022-12-11T09:50:07.635Z,34.90
2022-12-11T09:51:07.605Z,36.80
2022-12-11T09:52:07.591Z,34.20
2022-12-11T09:53:07.584Z,34.30
2022-12-11T09:54:07.556Z,33.70
2022-12-11T09:55:07.573Z,31.70
2022-12-11T09:56:07.536Z,35.60
2022-12-11T09:57:07.527Z,36.90
2022-12-11T09:58:07.516Z,35.40
2022-12-11T09:59:07.504Z,36.50
2022-12-11T10:00:07.506Z,34.20
2022-12-11T10:01:07.547Z,35.60
2022-12-11T10:02:07.465Z,39.70
2022-12-11T10:03:07.456Z,33.00
2022-12-11T10:04:17.149Z,32.10
2022-12-11T10:05:09.499Z,32.40
2022-12-11T10:06:07.409Z,39.40
2022-12-11T10:07:07.397Z,32.10
2022-12-11T10:08:07.425Z,31.90
2022-12-11T10:09:07.379Z,33.80
2022-12-11T10:10:07.380Z,33.90
2022-12-11T10:11:07.356Z,32.80
2022-12-11T10:12:07.341Z,30.90
2022-12-11T10:13:07.343Z,31.40
2022-12-11T10:14:07.317Z,31.30
2022-12-11T10:15:07.382Z,31.00
2022-12-11T10:16:07.321Z,29.20
2022-12-11T10:17:07.287Z,30.80
2022-12-11T10:18:07.264Z,33.30
2022-12-11T10:19:07.260Z,30.40
2022-12-11T10:20:07.251Z,31.40
2022-12-11T10:21:07.258Z,31.50
2022-12-11T10:22:07.230Z,30.10
2022-12-11T10:23:07.187Z,33.10
2022-12-11T10:24:07.178Z,30.10
2022-12-11T10:25:11.965Z,32.80
2022-12-11T10:26:08.158Z,30.60
2022-12-11T10:27:07.168Z,30.70
2022-12-11T10:28:07.117Z,35.60
2022-12-11T10:29:07.126Z,33.70
2022-12-11T10:30:07.128Z,34.30
2022-12-11T10:31:07.171Z,34.20
2022-12-11T10:32:07.067Z,33.50
2022-12-11T10:33:07.087Z,46.30
2022-12-11T10:34:07.038Z,275.20
2022-12-11T10:35:07.055Z,44.60
2022-12-11T10:36:07.025Z,38.20
2022-12-11T10:37:07.007Z,38.20
2022-12-11T10:38:06.989Z,34.30
2022-12-11T10:39:07.017Z,40.70
2022-12-11T10:40:06.993Z,35.90
2022-12-11T10:41:06.951Z,37.50
2022-12-11T10:42:06.950Z,40.80
2022-12-11T10:43:07.022Z,40.40
2022-12-11T10:44:07.538Z,42.90
2022-12-11T10:45:06.948Z,41.00
2022-12-11T10:46:06.935Z,43.30
2022-12-11T10:47:06.886Z,45.60
2022-12-11T10:48:06.877Z,45.00
2022-12-11T10:49:06.860Z,48.00
2022-12-11T10:50:06.851Z,40.50
2022-12-11T10:51:06.841Z,44.10
2022-12-11T10:52:06.798Z,49.70
2022-12-11T10:53:06.937Z,43.30
2022-12-11T10:54:07.551Z,51.00
2022-12-11T10:55:06.781Z,47.00
2022-12-11T10:56:06.767Z,50.00
2022-12-11T10:57:06.768Z,48.90
2022-12-11T10:58:06.729Z,51.70
2022-12-11T10:59:06.745Z,47.00
2022-12-11T11:00:06.717Z,46.80
2022-12-11T11:01:06.696Z,51.40
2022-12-11T11:02:06.703Z,49.90
2022-12-11T11:03:06.744Z,52.70
2022-12-11T11:04:06.660Z,47.40
2022-12-11T11:05:06.657Z,49.10
2022-12-11T11:06:06.645Z,50.70
2022-12-11T11:07:06.608Z,52.30
2022-12-11T11:08:06.696Z,53.20
2022-12-11T11:09:06.642Z,51.40
2022-12-11T11:10:06.580Z,49.70
2022-12-11T11:11:06.569Z,54.00
2022-12-11T11:12:08.199Z,50.90
2022-12-11T11:13:06.528Z,45.80
2022-12-11T11:14:06.537Z,50.90
2022-12-11T11:15:06.528Z,49.70
2022-12-11T11:16:06.567Z,52.30
2022-12-11T11:17:06.478Z,49.70
2022-12-11T11:18:06.478Z,45.40
2022-12-11T11:19:06.459Z,46.10
2022-12-11T11:20:06.458Z,46.90
2022-12-11T11:21:06.450Z,49.70
2022-12-11T11:22:06.415Z,50.20
2022-12-11T11:23:06.401Z,51.80
2022-12-11T11:24:06.412Z,63.70
2022-12-11T11:25:06.412Z,54.00
2022-12-11T11:26:06.359Z,49.80
2022-12-11T11:27:14.050Z,49.20
2022-12-11T11:28:07.335Z,48.50
2022-12-11T11:29:06.319Z,50.60
2022-12-11T11:30:06.342Z,45.70
2022-12-11T11:31:06.315Z,49.30
2022-12-11T11:32:06.278Z,48.10
2022-12-11T11:33:06.305Z,47.80
2022-12-11T11:34:06.258Z,53.70
2022-12-11T11:35:06.266Z,48.20
2022-12-11T11:36:06.238Z,53.30
2022-12-11T11:37:06.225Z,49.30
2022-12-11T11:38:06.217Z,48.80
2022-12-11T11:39:06.207Z,49.60
2022-12-11T11:40:06.197Z,53.70
2022-12-11T11:41:11.546Z,49.80
2022-12-11T11:42:07.157Z,52.50
2022-12-11T11:43:06.150Z,48.60
2022-12-11T11:44:06.138Z,49.90
2022-12-11T11:45:06.149Z,49.10
2022-12-11T11:46:06.180Z,49.00
2022-12-11T11:47:06.092Z,49.70
2022-12-11T11:48:11.100Z,57.80
2022-12-11T11:49:07.067Z,58.70
2022-12-11T11:50:06.104Z,59.40
2022-12-11T11:51:06.036Z,61.00
2022-12-11T11:52:06.018Z,65.60
2022-12-11T11:53:06.019Z,60.70
2022-12-11T11:54:06.007Z,56.40
2022-12-11T11:55:06.006Z,62.70
2022-12-11T11:56:05.969Z,58.30
2022-12-11T11:57:05.968Z,58.90
2022-12-11T11:58:05.941Z,60.00
2022-12-11T11:59:05.935Z,56.80
2022-12-11T12:00:05.942Z,55.30
2022-12-11T12:01:05.906Z,56.60
2022-12-11T12:02:05.896Z,59.70
2022-12-11T12:03:05.976Z,55.30
2022-12-11T12:04:12.918Z,54.80
2022-12-11T12:05:13.137Z,51.60
2022-12-11T12:06:05.838Z,49.20
2022-12-11T12:07:05.829Z,50.20
2022-12-11T12:08:05.867Z,52.30
2022-12-11T12:09:05.806Z,54.50
2022-12-11T12:10:05.895Z,54.10
2022-12-11T12:11:05.798Z,51.40
2022-12-11T12:12:05.767Z,47.10
2022-12-11T12:13:10.841Z,48.60
2022-12-11T12:14:22.753Z,49.10
2022-12-11T12:15:06.746Z,50.50
2022-12-11T12:16:22.914Z,53.80
2022-12-11T12:17:06.775Z,53.90
2022-12-11T12:18:05.678Z,57.50
2022-12-11T12:19:05.667Z,52.80
2022-12-11T12:20:05.658Z,51.30
2022-12-11T12:21:05.686Z,48.70
2022-12-11T12:22:05.658Z,55.20
2022-12-11T12:23:05.619Z,54.70
2022-12-11T12:24:05.603Z,48.80
2022-12-11T12:25:05.607Z,53.70
2022-12-11T12:26:05.575Z,49.50
2022-12-11T12:27:22.896Z,51.50
2022-12-11T12:28:06.549Z,49.60
2022-12-11T12:29:05.537Z,45.60
2022-12-11T12:30:05.569Z,48.30
2022-12-11T12:31:05.544Z,50.10
2022-12-11T12:32:05.510Z,51.80
2022-12-11T12:33:05.487Z,50.90
2022-12-11T12:34:05.495Z,54.60
2022-12-11T12:35:05.507Z,49.90
2022-12-11T12:36:07.275Z,51.90
2022-12-11T12:37:05.443Z,92.70
2022-12-11T12:38:05.427Z,62.50
2022-12-11T12:39:05.408Z,56.00
2022-12-11T12:40:05.405Z,54.30
2022-12-11T12:41:05.445Z,53.80
2022-12-11T12:42:07.774Z,56.60
2022-12-11T12:43:05.375Z,52.90
2022-12-11T12:44:05.422Z,53.20